This is the latest recevied weather packets stored in our database for station/object AC0YE. If no packets are shown the sender has not sent any weather packets the latest 10 day(s).
| Time | Temp. | Humidity | Pressure | Rain* | Wind** | Luminosity | Snow |
|---|---|---|---|---|---|---|---|
| 1777708216 | 2.78° C | 80% | 1020 hPa | 0 mm | - | - | - |
| 1777704916 | 3.33° C | 74% | 1020.1 hPa | 0 mm | - | - | - |
| 1777704316 | 3.89° C | 72% | 1020.2 hPa | 0 mm | - | - | - |
| 1777703716 | 3.89° C | 71% | 1020.3 hPa | 0 mm | - | - | - |
| 1777703436 | 3.89° C | 71% | 1020.3 hPa | 0 mm | - | - | - |
| 1777702516 | 4.44° C | 70% | 1020.4 hPa | 0 mm | - | - | - |
| 1777700456 | 3.89° C | 73% | 1020.1 hPa | 0 mm | - | - | - |
| 1777698616 | 4.44° C | 72% | 1019.8 hPa | 0 mm | - | - | - |
| 1777698316 | 4.44° C | 73% | 1019.7 hPa | 0 mm | - | - | - |
| 1777697736 | 5° C | 72% | 1019.6 hPa | 0 mm | - | - | - |
| 1777697416 | 5° C | 72% | 1019.7 hPa | 0 mm | - | - | - |
| 1777697116 | 5° C | 71% | 1019.6 hPa | 0 mm | - | - | - |
| 1777695916 | 5.56° C | 70% | 1019.5 hPa | 0 mm | - | - | - |
| 1777693516 | 6.67° C | 66% | 1019.3 hPa | 0 mm | - | - | - |
| 1777692316 | 7.22° C | 64% | 1019.3 hPa | 0 mm | - | - | - |
| 1777692016 | 7.22° C | 63% | 1019.2 hPa | 0 mm | - | - | - |
| 1777689916 | 8.33° C | 59% | 1018.7 hPa | 0 mm | - | - | - |
| 1777686916 | 10° C | 55% | 1018.3 hPa | 0 mm | - | - | - |
| 1777686616 | 10.56° C | 55% | 1018.2 hPa | 0 mm | - | - | - |
| 1777683316 | 11.11° C | 54% | 1017.6 hPa | 0 mm | - | - | - |
| 1777681216 | 11.67° C | 52% | 1017.2 hPa | 0 mm | - | - | - |
| 1777680316 | 11.67° C | 52% | 1017.1 hPa | 0 mm | - | - | - |
| 1777679415 | 11.67° C | 50% | 1017.1 hPa | 0 mm | - | - | - |
| 1777675815 | 13.33° C | 46% | 1017 hPa | 0 mm | - | - | - |
| 1777674915 | 12.78° C | 47% | 1017.1 hPa | 0 mm | - | - | - |
* Rain latest hour (hover to see other rain measurements)
** Current wind speed in m/s (hover to see current wind gust speed)